ICACS23 LIMF-LIMC
Flight info
| Callsign | ICACS23 |
|---|---|
| Flight time | N/A |
| Altitude | 4500 |
| Route | VFR LIMF DCT VOG DCT LIMC |
| Aircraft | C152/L-S/C |
Departure
| Time | 2026-05-06 20:35 |
|---|---|
| Airport | Turin Airport (LIMF) |
Arrival
| Time | N/A |
|---|---|
| Airport | Milan Malpensa International Airport (LIMC) |
| Time | Latitude | Longitude | Altitude | Speed | Heading |
|---|---|---|---|---|---|
| 2026-05-06 20:04 | 45.19659 | 7.64612 | 956 ft | 0 kts | 92° |
| 2026-05-06 20:24 | 45.19659 | 7.64619 | 956 ft | 5 kts | 88° |
| 2026-05-06 20:24 | 45.19701 | 7.64718 | 955 ft | 18 kts | 356° |
| 2026-05-06 20:24 | 45.19714 | 7.64667 | 955 ft | 7 kts | 149° |
| 2026-05-06 20:24 | 45.19669 | 7.64692 | 955 ft | 8 kts | 186° |
| 2026-05-06 20:25 | 45.19607 | 7.64691 | 954 ft | 10 kts | 182° |
| 2026-05-06 20:25 | 45.19527 | 7.64686 | 952 ft | 13 kts | 181° |
| 2026-05-06 20:25 | 45.19434 | 7.64683 | 952 ft | 14 kts | 178° |
| 2026-05-06 20:25 | 45.19341 | 7.64676 | 953 ft | 14 kts | 181° |
| 2026-05-06 20:26 | 45.19237 | 7.64675 | 949 ft | 17 kts | 172° |
| 2026-05-06 20:26 | 45.19135 | 7.64663 | 944 ft | 20 kts | 185° |
| 2026-05-06 20:26 | 45.19037 | 7.64658 | 943 ft | 1 kts | 183° |
| 2026-05-06 20:26 | 45.19036 | 7.64658 | 943 ft | 0 kts | 182° |
| 2026-05-06 20:27 | 45.19012 | 7.64660 | 942 ft | 9 kts | 180° |
| 2026-05-06 20:27 | 45.18897 | 7.64644 | 936 ft | 24 kts | 181° |
| 2026-05-06 20:27 | 45.18740 | 7.64637 | 931 ft | 21 kts | 189° |
| 2026-05-06 20:28 | 45.18661 | 7.64640 | 928 ft | 4 kts | 156° |
| 2026-05-06 20:28 | 45.18636 | 7.64668 | 928 ft | 0 kts | 127° |
| 2026-05-06 20:32 | 45.18623 | 7.64694 | 927 ft | 9 kts | 120° |
| 2026-05-06 20:33 | 45.18627 | 7.64816 | 925 ft | 15 kts | 59° |
| 2026-05-06 20:33 | 45.18705 | 7.64879 | 928 ft | 11 kts | 2° |
| 2026-05-06 20:33 | 45.18768 | 7.64883 | 932 ft | 7 kts | 4° |
| 2026-05-06 20:33 | 45.18822 | 7.64886 | 934 ft | 19 kts | 3° |
| 2026-05-06 20:34 | 45.19128 | 7.64906 | 959 ft | 62 kts | 3° |
| 2026-05-06 20:34 | 45.19603 | 7.64905 | 1084 ft | 72 kts | 360° |
| 2026-05-06 20:34 | 45.20125 | 7.64937 | 1216 ft | 76 kts | 12° |
| 2026-05-06 20:34 | 45.20546 | 7.65368 | 1383 ft | 76 kts | 51° |
| 2026-05-06 20:35 | 45.20820 | 7.65985 | 1574 ft | 75 kts | 59° |
| 2026-05-06 20:35 | 45.20998 | 7.66674 | 1757 ft | 75 kts | 76° |
| 2026-05-06 20:35 | 45.21069 | 7.67426 | 1914 ft | 75 kts | 77° |
| 2026-05-06 20:35 | 45.21200 | 7.68173 | 2008 ft | 84 kts | 68° |
| 2026-05-06 20:36 | 45.21431 | 7.68993 | 1998 ft | 94 kts | 67° |
| 2026-05-06 20:36 | 45.21671 | 7.69814 | 2129 ft | 88 kts | 63° |
| 2026-05-06 20:36 | 45.21958 | 7.70608 | 2188 ft | 92 kts | 70° |
| 2026-05-06 20:36 | 45.21742 | 7.71446 | 2140 ft | 107 kts | 143° |
| 2026-05-06 20:37 | 45.21068 | 7.71490 | 2094 ft | 99 kts | 210° |
| 2026-05-06 20:37 | 45.20547 | 7.70840 | 1937 ft | 95 kts | 223° |
| 2026-05-06 20:37 | 45.20070 | 7.70236 | 1866 ft | 88 kts | 223° |
| 2026-05-06 20:37 | 45.19589 | 7.69627 | 1653 ft | 94 kts | 225° |
| 2026-05-06 20:38 | 45.19175 | 7.68968 | 1587 ft | 88 kts | 235° |
| 2026-05-06 20:38 | 45.18794 | 7.68338 | 1575 ft | 82 kts | 216° |
| 2026-05-06 20:38 | 45.18278 | 7.67945 | 1498 ft | 86 kts | 212° |
| 2026-05-06 20:38 | 45.17798 | 7.67492 | 1474 ft | 81 kts | 218° |
| 2026-05-06 20:39 | 45.17324 | 7.67008 | 1458 ft | 85 kts | 217° |
| 2026-05-06 20:39 | 45.16814 | 7.66534 | 1454 ft | 88 kts | 211° |
| 2026-05-06 20:39 | 45.16258 | 7.66185 | 1464 ft | 91 kts | 200° |
| 2026-05-06 20:39 | 45.16107 | 7.66112 | 1475 ft | 91 kts | 200° |
| 2026-05-06 20:40 | 45.15533 | 7.65835 | 1498 ft | 90 kts | 200° |
| 2026-05-06 20:40 | 45.14944 | 7.65551 | 1545 ft | 86 kts | 199° |
| 2026-05-06 20:41 | 45.14359 | 7.65289 | 1567 ft | 86 kts | 198° |
| 2026-05-06 20:41 | 45.13789 | 7.65030 | 1619 ft | 86 kts | 198° |
| 2026-05-06 20:41 | 45.13214 | 7.64824 | 1687 ft | 82 kts | 191° |
| 2026-05-06 20:41 | 45.12638 | 7.64808 | 1755 ft | 79 kts | 164° |
| 2026-05-06 20:42 | 45.12151 | 7.65207 | 1740 ft | 84 kts | 143° |
| 2026-05-06 20:42 | 45.11585 | 7.65401 | 1762 ft | 86 kts | 178° |
| 2026-05-06 20:42 | 45.11007 | 7.65440 | 1827 ft | 83 kts | 175° |
| 2026-05-06 20:42 | 45.10431 | 7.65556 | 1852 ft | 83 kts | 169° |
| 2026-05-06 20:43 | 45.09883 | 7.65774 | 1889 ft | 82 kts | 157° |
| 2026-05-06 20:43 | 45.09367 | 7.66110 | 1923 ft | 82 kts | 160° |
| 2026-05-06 20:43 | 45.08792 | 7.66026 | 1888 ft | 89 kts | 211° |
| 2026-05-06 20:43 | 45.08331 | 7.65456 | 1859 ft | 92 kts | 237° |
| 2026-05-06 20:44 | 45.08101 | 7.64652 | 1853 ft | 90 kts | 266° |
| 2026-05-06 20:44 | 45.08117 | 7.63773 | 1808 ft | 89 kts | 282° |
| 2026-05-06 20:44 | 45.08298 | 7.62966 | 1838 ft | 83 kts | 299° |
| 2026-05-06 20:44 | 45.08619 | 7.62310 | 1888 ft | 80 kts | 312° |
| 2026-05-06 20:45 | 45.08973 | 7.61675 | 1882 ft | 83 kts | 308° |
| 2026-05-06 20:45 | 45.09291 | 7.60998 | 1891 ft | 85 kts | 306° |
| 2026-05-06 20:45 | 45.09596 | 7.60276 | 1899 ft | 84 kts | 302° |
| 2026-05-06 20:45 | 45.09788 | 7.59550 | 1970 ft | 78 kts | 294° |
| 2026-05-06 20:46 | 45.10000 | 7.58839 | 2005 ft | 77 kts | 297° |
| 2026-05-06 20:46 | 45.10092 | 7.58035 | 1931 ft | 91 kts | 272° |
| 2026-05-06 20:46 | 45.10010 | 7.57143 | 1864 ft | 94 kts | 263° |
| 2026-05-06 20:46 | 45.09853 | 7.56249 | 1817 ft | 91 kts | 258° |
| 2026-05-06 20:47 | 45.09701 | 7.55395 | 1755 ft | 92 kts | 262° |
| 2026-05-06 20:47 | 45.09581 | 7.54532 | 1731 ft | 88 kts | 262° |
| 2026-05-06 20:47 | 45.09491 | 7.53694 | 1710 ft | 85 kts | 268° |
| 2026-05-06 20:47 | 45.09423 | 7.52847 | 1654 ft | 87 kts | 258° |
| 2026-05-06 20:48 | 45.09136 | 7.52097 | 1629 ft | 87 kts | 239° |
| 2026-05-06 20:48 | 45.08795 | 7.51395 | 1637 ft | 84 kts | 227° |
| 2026-05-06 20:48 | 45.08293 | 7.50969 | 1619 ft | 83 kts | 208° |
| 2026-05-06 20:48 | 45.07744 | 7.50740 | 1660 ft | 81 kts | 187° |
| 2026-05-06 20:49 | 45.07172 | 7.50706 | 1655 ft | 84 kts | 178° |
| 2026-05-06 20:49 | 45.06583 | 7.50815 | 1703 ft | 87 kts | 169° |
| 2026-05-06 20:49 | 45.06017 | 7.51061 | 1768 ft | 84 kts | 161° |
| 2026-05-06 20:49 | 45.05497 | 7.51400 | 1772 ft | 84 kts | 143° |
| 2026-05-06 20:50 | 45.05103 | 7.52035 | 1745 ft | 85 kts | 122° |
| 2026-05-06 20:50 | 45.04752 | 7.52756 | 1695 ft | 92 kts | 126° |
| 2026-05-06 20:50 | 45.04334 | 7.53468 | 1677 ft | 94 kts | 130° |
| 2026-05-06 20:50 | 45.03940 | 7.54190 | 1685 ft | 92 kts | 119° |
| 2026-05-06 20:51 | 45.03657 | 7.55016 | 1599 ft | 95 kts | 109° |
| 2026-05-06 20:51 | 45.03426 | 7.55859 | 1605 ft | 90 kts | 109° |
| 2026-05-06 20:51 | 45.03172 | 7.56641 | 1616 ft | 88 kts | 114° |
| 2026-05-06 20:51 | 45.02887 | 7.57396 | 1592 ft | 90 kts | 115° |
| 2026-05-06 20:52 | 45.02575 | 7.58191 | 1539 ft | 94 kts | 115° |
| 2026-05-06 20:52 | 45.02263 | 7.58991 | 1552 ft | 89 kts | 112° |
| 2026-05-06 20:52 | 45.02041 | 7.59798 | 1556 ft | 87 kts | 102° |
| 2026-05-06 20:52 | 45.01969 | 7.60641 | 1555 ft | 85 kts | 86° |
| 2026-05-06 20:53 | 45.01950 | 7.61477 | 1554 ft | 84 kts | 88° |
| 2026-05-06 20:53 | 45.01926 | 7.62317 | 1542 ft | 85 kts | 88° |
| 2026-05-06 20:53 | 45.01887 | 7.63152 | 1575 ft | 82 kts | 84° |
| 2026-05-06 20:53 | 45.02062 | 7.63879 | 1614 ft | 74 kts | 44° |
| 2026-05-06 20:54 | 45.02538 | 7.64027 | 1592 ft | 73 kts | 340° |
| 2026-05-06 20:54 | 45.02969 | 7.63612 | 1593 ft | 69 kts | 339° |
| 2026-05-06 20:54 | 45.03429 | 7.63701 | 1590 ft | 72 kts | 17° |
| 2026-05-06 20:54 | 45.03909 | 7.63926 | 1628 ft | 71 kts | 14° |
| 2026-05-06 20:55 | 45.04403 | 7.64074 | 1565 ft | 80 kts | 7° |
| 2026-05-06 20:55 | 45.04952 | 7.64197 | 1546 ft | 78 kts | 7° |
| 2026-05-06 20:55 | 45.05465 | 7.64279 | 1591 ft | 71 kts | 4° |
| 2026-05-06 20:55 | 45.05969 | 7.64341 | 1583 ft | 71 kts | 3° |
| 2026-05-06 20:56 | 45.06471 | 7.64339 | 1561 ft | 77 kts | 0° |
| 2026-05-06 20:56 | 45.06997 | 7.64364 | 1587 ft | 76 kts | 3° |
| 2026-05-06 20:56 | 45.07521 | 7.64412 | 1579 ft | 75 kts | 5° |
| 2026-05-06 20:56 | 45.07983 | 7.64440 | 1577 ft | 62 kts | 1° |
| 2026-05-06 20:57 | 45.08398 | 7.64450 | 1525 ft | 60 kts | 360° |
| 2026-05-06 20:57 | 45.08801 | 7.64443 | 1538 ft | 56 kts | 359° |
| 2026-05-06 20:57 | 45.09227 | 7.64429 | 1527 ft | 68 kts | 357° |
| 2026-05-06 20:57 | 45.09705 | 7.64397 | 1578 ft | 69 kts | 359° |
| 2026-05-06 20:58 | 45.10211 | 7.64377 | 1559 ft | 74 kts | 0° |
| 2026-05-06 20:58 | 45.10723 | 7.64381 | 1578 ft | 74 kts | 1° |
| 2026-05-06 20:58 | 45.11244 | 7.64399 | 1575 ft | 77 kts | 3° |
| 2026-05-06 20:58 | 45.11779 | 7.64456 | 1587 ft | 78 kts | 4° |
| 2026-05-06 20:59 | 45.12314 | 7.64487 | 1611 ft | 76 kts | 2° |
| 2026-05-06 20:59 | 45.12846 | 7.64518 | 1589 ft | 74 kts | 1° |
| 2026-05-06 20:59 | 45.13359 | 7.64550 | 1607 ft | 74 kts | 2° |
| 2026-05-06 20:59 | 45.13875 | 7.64573 | 1608 ft | 73 kts | 1° |
| 2026-05-06 21:00 | 45.14388 | 7.64584 | 1625 ft | 74 kts | 359° |
| 2026-05-06 21:00 | 45.14911 | 7.64634 | 1631 ft | 75 kts | 3° |
| 2026-05-06 21:00 | 45.15446 | 7.64679 | 1614 ft | 79 kts | 2° |
| 2026-05-06 21:00 | 45.15949 | 7.64730 | 1492 ft | 68 kts | 4° |
| 2026-05-06 21:01 | 45.16417 | 7.64746 | 1413 ft | 67 kts | 1° |
| 2026-05-06 21:01 | 45.16888 | 7.64771 | 1348 ft | 68 kts | 1° |
| 2026-05-06 21:01 | 45.17375 | 7.64793 | 1242 ft | 70 kts | 3° |
| 2026-05-06 21:01 | 45.17860 | 7.64831 | 1142 ft | 69 kts | 3° |
| 2026-05-06 21:02 | 45.18320 | 7.64856 | 1075 ft | 64 kts | 4° |
| 2026-05-06 21:02 | 45.18762 | 7.64878 | 1010 ft | 63 kts | 2° |
| 2026-05-06 21:02 | 45.19174 | 7.64906 | 968 ft | 51 kts | 5° |
| 2026-05-06 21:02 | 45.19466 | 7.64931 | 954 ft | 35 kts | 6° |
| 2026-05-06 21:03 | 45.19532 | 7.64907 | 955 ft | 6 kts | 242° |
| 2026-05-06 21:03 | 45.19524 | 7.64844 | 954 ft | 7 kts | 271° |
| 2026-05-06 21:03 | 45.19525 | 7.64817 | 954 ft | 0 kts | 274° |
| 2026-05-06 21:03 | 45.19526 | 7.64775 | 953 ft | 10 kts | 274° |
| 2026-05-06 21:04 | 45.19560 | 7.64689 | 953 ft | 11 kts | 346° |
| 2026-05-06 21:04 | 45.19605 | 7.64686 | 954 ft | 5 kts | 330° |
| 2026-05-06 21:04 | 45.19613 | 7.64646 | 955 ft | 4 kts | 273° |
| 2026-05-06 21:04 | 45.19616 | 7.64603 | 955 ft | 4 kts | 274° |
| 2026-05-06 21:05 | 45.19617 | 7.64599 | 955 ft | 0 kts | 274° |